Terminal Aerodrome Forecast
Issued by NWS

Home | Current Version | Previous Version | Text Only | Print | Product List | Glossary On
Versions: 1 2 3 4 5 6 7 8 9 10 11 12 13 14 15 16
000
FTUS43 KLSX 230520
TAFUIN
TAF
KUIN 230520Z 2306/2406 12012KT P6SM BKN120
     FM231300 14012G18KT P6SM VCSH OVC035
      TEMPO 2315/2318 4SM SHRA OVC025
     FM231900 15013G20KT P6SM OVC050
     FM240200 16013KT P6SM SCT200 WS014/20050KT=

USA.gov is the U.S. government's official web portal to all federal, state and local government web resources and services.